createdAt,value
2022-10-19T00:01:22.433Z,101801.09
2022-10-19T00:03:52.288Z,101794.88
2022-10-19T00:06:27.449Z,101794.13
2022-10-19T00:09:04.560Z,101805.16
2022-10-19T00:11:33.596Z,101798.19
2022-10-19T00:14:01.075Z,101813.34
2022-10-19T00:16:28.851Z,101801.94
2022-10-19T00:19:00.350Z,101799.81
2022-10-19T00:21:27.659Z,101802.50
2022-10-19T00:23:54.549Z,101801.09
2022-10-19T00:26:21.188Z,101802.94
2022-10-19T00:28:48.969Z,101819.84
2022-10-19T00:31:17.712Z,101817.28
2022-10-19T00:33:46.947Z,101813.78
2022-10-19T00:36:32.038Z,101815.94
2022-10-19T00:38:59.162Z,101825.88
2022-10-19T00:41:28.917Z,101825.38
2022-10-19T00:43:57.760Z,101825.28
2022-10-19T00:46:26.301Z,101818.53
2022-10-19T00:48:57.396Z,101821.19
2022-10-19T00:51:26.155Z,101821.44
2022-10-19T00:53:52.985Z,101820.16
2022-10-19T00:56:19.685Z,101813.34
2022-10-19T00:58:46.745Z,101814.19
2022-10-19T01:01:17.853Z,101814.88
2022-10-19T01:03:45.291Z,101822.03
2022-10-19T01:06:14.510Z,101813.00
2022-10-19T01:08:41.170Z,101808.22
2022-10-19T01:11:26.610Z,101817.13
2022-10-19T01:14:04.995Z,101809.31
2022-10-19T01:16:40.692Z,101803.75
2022-10-19T01:19:27.538Z,101806.41
2022-10-19T01:22:00.078Z,101808.22
2022-10-19T01:25:25.135Z,101805.38
2022-10-19T01:28:19.678Z,101803.97
2022-10-19T01:31:17.805Z,101798.03
2022-10-19T01:34:15.233Z,101796.34
2022-10-19T01:37:00.200Z,101801.19
2022-10-19T01:39:42.597Z,101803.56
2022-10-19T01:42:28.088Z,101811.53
2022-10-19T01:45:13.996Z,101805.59
2022-10-19T01:47:51.080Z,101805.25
2022-10-19T01:50:25.583Z,101807.91
2022-10-19T01:52:54.399Z,101813.66
2022-10-19T01:55:24.121Z,101807.34
2022-10-19T01:57:59.310Z,101803.00
2022-10-19T02:00:27.224Z,101803.34
2022-10-19T02:02:55.254Z,101805.13
2022-10-19T02:05:27.919Z,101807.84
2022-10-19T02:08:24.968Z,101795.59
2022-10-19T02:10:53.468Z,101799.66
2022-10-19T02:13:21.450Z,101805.09
2022-10-19T02:15:51.544Z,101794.78
2022-10-19T02:18:24.255Z,101788.25
2022-10-19T02:20:51.226Z,101794.97
2022-10-19T02:23:22.114Z,101796.72
2022-10-19T02:25:48.974Z,101796.94
2022-10-19T02:28:15.758Z,101805.84
2022-10-19T02:30:42.694Z,101803.56
2022-10-19T02:33:09.606Z,101807.22
2022-10-19T02:35:36.315Z,101806.47
2022-10-19T02:38:05.360Z,101804.22
2022-10-19T02:40:36.206Z,101802.59
2022-10-19T02:43:07.596Z,101797.66
2022-10-19T02:45:40.833Z,101801.28
2022-10-19T02:48:13.387Z,101798.81
2022-10-19T02:50:49.803Z,101798.16
2022-10-19T02:53:16.651Z,101806.94
2022-10-19T02:55:43.689Z,101803.63
2022-10-19T02:58:10.383Z,101804.06
2022-10-19T03:00:37.005Z,101806.16
2022-10-19T03:03:03.751Z,101813.53
2022-10-19T03:05:30.386Z,101805.75
2022-10-19T03:07:56.982Z,101814.38
2022-10-19T03:10:23.767Z,101809.53
2022-10-19T03:12:50.416Z,101809.00
2022-10-19T03:15:18.868Z,101816.13
2022-10-19T03:17:45.470Z,101811.59
2022-10-19T03:20:12.361Z,101817.88
2022-10-19T03:22:39.113Z,101825.16
2022-10-19T03:25:06.212Z,101818.09
2022-10-19T03:27:33.162Z,101816.25
2022-10-19T03:29:59.930Z,101812.78
2022-10-19T03:32:26.819Z,101824.13
2022-10-19T03:34:53.440Z,101824.56
2022-10-19T03:37:20.120Z,101823.72
2022-10-19T03:39:46.696Z,101828.56
2022-10-19T03:42:13.340Z,101826.00
2022-10-19T03:44:39.905Z,101824.41
2022-10-19T03:47:06.508Z,101841.44
2022-10-19T03:49:34.669Z,101828.66
2022-10-19T03:52:03.585Z,101834.38
2022-10-19T03:54:30.171Z,101843.47
2022-10-19T03:56:56.822Z,101845.09
2022-10-19T03:59:24.365Z,101845.78
2022-10-19T04:01:50.867Z,101845.44
2022-10-19T04:04:19.777Z,101845.44
2022-10-19T04:06:49.048Z,101852.69
2022-10-19T04:09:18.760Z,101860.25
2022-10-19T04:11:45.862Z,101845.94
2022-10-19T04:14:19.275Z,101848.69
2022-10-19T04:16:53.876Z,101853.66
2022-10-19T04:19:20.467Z,101864.56
2022-10-19T04:21:49.196Z,101862.59
2022-10-19T04:24:18.867Z,101864.16
2022-10-19T04:26:50.416Z,101865.88
2022-10-19T04:29:19.203Z,101870.78
2022-10-19T04:31:48.251Z,101865.94
2022-10-19T04:34:14.884Z,101852.22
2022-10-19T04:36:41.509Z,101862.22
2022-10-19T04:39:08.345Z,101866.91
2022-10-19T04:41:35.637Z,101860.53
2022-10-19T04:44:04.308Z,101868.50
2022-10-19T04:46:30.895Z,101861.53
2022-10-19T04:48:58.292Z,101858.38
2022-10-19T04:51:26.695Z,101870.13
2022-10-19T04:53:56.893Z,101866.84
2022-10-19T04:56:27.031Z,101867.88
2022-10-19T04:58:59.946Z,101872.44
2022-10-19T05:01:29.124Z,101869.97
2022-10-19T05:04:00.725Z,101864.00
2022-10-19T05:06:28.641Z,101858.69
2022-10-19T05:08:56.041Z,101860.31
2022-10-19T05:11:22.632Z,101849.75
2022-10-19T05:13:49.800Z,101866.19
2022-10-19T05:16:19.259Z,101867.28
2022-10-19T05:18:50.590Z,101866.72
2022-10-19T05:21:18.771Z,101864.31
2022-10-19T05:23:45.396Z,101859.78
2022-10-19T05:26:17.759Z,101871.84
2022-10-19T05:28:49.586Z,101862.66
2022-10-19T05:31:19.112Z,101864.78
2022-10-19T05:33:46.279Z,101863.22
2022-10-19T05:36:27.631Z,101857.78
2022-10-19T05:38:56.719Z,101872.28
2022-10-19T05:41:24.944Z,101863.34
2022-10-19T05:43:57.324Z,101860.69
2022-10-19T05:46:25.212Z,101867.09
2022-10-19T05:48:51.807Z,101863.44
2022-10-19T05:51:23.618Z,101861.19
2022-10-19T05:53:50.717Z,101865.38
2022-10-19T05:56:20.376Z,101878.94
2022-10-19T05:58:48.373Z,101870.59
2022-10-19T06:01:16.566Z,101872.06
2022-10-19T06:03:43.211Z,101878.59
2022-10-19T06:06:10.182Z,101880.69
2022-10-19T06:08:38.220Z,101879.16
2022-10-19T06:11:13.863Z,101879.03
2022-10-19T06:13:41.932Z,101885.50
2022-10-19T06:16:10.089Z,101881.72
2022-10-19T06:18:37.992Z,101894.28
2022-10-19T06:21:06.827Z,101888.13
2022-10-19T06:23:34.708Z,101885.75
2022-10-19T06:26:07.285Z,101887.13
2022-10-19T06:28:34.373Z,101891.81
2022-10-19T06:31:01.098Z,101889.78
2022-10-19T06:33:30.200Z,101892.81
2022-10-19T06:35:56.939Z,101895.19
2022-10-19T06:38:23.542Z,101895.56
2022-10-19T06:40:50.216Z,101894.84
2022-10-19T06:43:16.855Z,101888.00
2022-10-19T06:45:43.399Z,101897.97
2022-10-19T06:48:10.038Z,101887.22
2022-10-19T06:50:36.648Z,101890.66
2022-10-19T06:53:03.350Z,101890.72
2022-10-19T06:55:29.977Z,101896.16
2022-10-19T06:57:59.263Z,101899.59
2022-10-19T07:00:25.988Z,101907.50
2022-10-19T07:02:52.772Z,101908.66
2022-10-19T07:05:19.424Z,101909.28
2022-10-19T07:07:46.189Z,101904.38
2022-10-19T07:10:13.080Z,101907.38
2022-10-19T07:12:39.741Z,101906.97
2022-10-19T07:15:06.798Z,101916.31
2022-10-19T07:17:33.687Z,101919.88
2022-10-19T07:20:00.399Z,101912.91
2022-10-19T07:22:28.181Z,101927.94
2022-10-19T07:24:55.135Z,101927.31
2022-10-19T07:27:22.092Z,101929.31
2022-10-19T07:29:48.686Z,101929.19
2022-10-19T07:32:15.350Z,101927.63
2022-10-19T07:34:42.084Z,101939.84
2022-10-19T07:37:08.671Z,101943.03
2022-10-19T07:39:35.288Z,101935.97
2022-10-19T07:42:01.956Z,101933.84
2022-10-19T07:44:28.572Z,101938.25
2022-10-19T07:46:55.293Z,101931.31
2022-10-19T07:49:22.450Z,101936.00
2022-10-19T07:51:53.788Z,101936.31
2022-10-19T07:54:21.397Z,101942.78
2022-10-19T07:56:47.912Z,101938.09
2022-10-19T07:59:16.279Z,101931.56
2022-10-19T08:01:44.692Z,101940.09
2022-10-19T08:04:49.103Z,101945.22
2022-10-19T08:06:58.017Z,101945.72
2022-10-19T08:12:15.185Z,101952.88
2022-10-19T08:14:42.412Z,101944.13
2022-10-19T08:17:11.955Z,101947.34
2022-10-19T08:19:43.401Z,101952.78
2022-10-19T08:22:11.052Z,101948.97
2022-10-19T08:24:38.120Z,101946.09
2022-10-19T08:27:04.867Z,101952.59
2022-10-19T08:29:31.957Z,101945.34
2022-10-19T08:31:59.221Z,101955.44
2022-10-19T08:34:26.684Z,101957.97
2022-10-19T08:36:53.223Z,101946.25
2022-10-19T08:39:19.871Z,101954.13
2022-10-19T08:41:53.211Z,101950.94
2022-10-19T08:44:40.201Z,101952.66
2022-10-19T08:47:38.156Z,101955.66
2022-10-19T08:50:19.397Z,101955.38
2022-10-19T08:52:51.688Z,101955.69
2022-10-19T08:55:26.753Z,101960.03
2022-10-19T08:58:02.979Z,101955.88
2022-10-19T09:00:41.252Z,101957.13
2022-10-19T09:03:13.803Z,101956.81
2022-10-19T09:06:10.143Z,101959.47
2022-10-19T09:08:39.026Z,101965.69
2022-10-19T09:11:08.775Z,101955.34
2022-10-19T09:14:03.693Z,101953.84
2022-10-19T09:16:28.630Z,101964.94
2022-10-19T09:21:46.316Z,101968.63
2022-10-19T09:24:35.455Z,101972.75
2022-10-19T09:27:02.674Z,101973.16
2022-10-19T09:29:41.513Z,101971.25
2022-10-19T09:32:24.087Z,101974.31
2022-10-19T09:35:03.077Z,101967.38
2022-10-19T09:37:32.757Z,101966.75
2022-10-19T09:39:59.526Z,101961.69
2022-10-19T09:42:34.031Z,101954.63
2022-10-19T09:45:11.935Z,101951.78
2022-10-19T09:47:40.749Z,101956.69
2022-10-19T09:50:19.226Z,101954.84
2022-10-19T09:52:50.287Z,101949.41
2022-10-19T09:55:20.626Z,101957.66
2022-10-19T09:57:49.746Z,101961.38
2022-10-19T10:00:25.258Z,101957.34
2022-10-19T10:02:55.869Z,101956.25
2022-10-19T10:05:40.747Z,101957.34
2022-10-19T10:08:15.532Z,101956.91
2022-10-19T10:10:52.712Z,101955.19
2022-10-19T10:13:23.561Z,101955.09
2022-10-19T10:15:56.637Z,101954.31
2022-10-19T10:18:24.990Z,101964.84
2022-10-19T10:21:13.523Z,101962.06
2022-10-19T10:23:41.083Z,101954.78
2022-10-19T10:26:17.885Z,101958.94
2022-10-19T10:28:50.212Z,101957.88
2022-10-19T10:31:22.471Z,101964.56
2022-10-19T10:34:10.794Z,101962.84
2022-10-19T10:36:51.556Z,101959.00
2022-10-19T10:39:18.360Z,101965.78
2022-10-19T10:41:47.958Z,101966.47
2022-10-19T10:44:20.746Z,101964.84
2022-10-19T10:46:57.051Z,101969.38
2022-10-19T10:49:27.383Z,101969.38
2022-10-19T10:51:59.749Z,101966.72
2022-10-19T10:54:27.826Z,101964.59
2022-10-19T10:57:06.620Z,101963.38
2022-10-19T10:59:43.060Z,101950.94
2022-10-19T11:02:35.529Z,101950.72
2022-10-19T11:05:29.469Z,101954.75
2022-10-19T11:08:03.301Z,101956.50
2022-10-19T11:11:14.155Z,101954.44
2022-10-19T11:13:56.983Z,101954.59
2022-10-19T11:16:38.951Z,101944.06
2022-10-19T11:19:12.666Z,101947.03
2022-10-19T11:21:59.573Z,101945.06
2022-10-19T11:24:48.721Z,101941.09
2022-10-19T11:28:00.128Z,101943.13
2022-10-19T11:30:27.849Z,101944.38
2022-10-19T11:33:06.051Z,101933.47
2022-10-19T11:35:43.441Z,101930.88
2022-10-19T11:38:29.800Z,101924.63
2022-10-19T11:41:38.294Z,101919.78
2022-10-19T11:44:43.563Z,101900.41
2022-10-19T11:47:32.292Z,101908.63
2022-10-19T11:50:20.451Z,101908.75
2022-10-19T11:52:55.994Z,101901.94
2022-10-19T11:55:43.052Z,101900.53
2022-10-19T11:58:44.239Z,101902.94
2022-10-19T12:01:19.697Z,101903.09
2022-10-19T12:04:04.475Z,101896.25
2022-10-19T12:07:01.712Z,101897.19
2022-10-19T12:09:56.844Z,101893.00
2022-10-19T12:12:35.103Z,101888.34
2022-10-19T12:15:10.958Z,101890.47
2022-10-19T12:17:41.152Z,101893.28
2022-10-19T12:20:25.853Z,101888.81
2022-10-19T12:22:52.959Z,101883.31
2022-10-19T12:25:20.851Z,101880.22
2022-10-19T12:27:50.028Z,101877.94
2022-10-19T12:30:20.622Z,101868.31
2022-10-19T12:33:12.213Z,101865.13
2022-10-19T12:35:55.524Z,101858.00
2022-10-19T12:38:35.402Z,101854.41
2022-10-19T12:41:06.520Z,101850.38
2022-10-19T12:43:41.025Z,101841.84
2022-10-19T12:46:26.582Z,101834.81
2022-10-19T12:49:41.230Z,101827.25
2022-10-19T12:52:08.186Z,101825.06
2022-10-19T12:54:38.280Z,101835.28
2022-10-19T12:57:22.894Z,101832.19
2022-10-19T13:00:00.605Z,101827.75
2022-10-19T13:05:00.299Z,101824.09
2022-10-19T13:07:27.718Z,101823.66
2022-10-19T13:10:01.776Z,101823.38
2022-10-19T13:12:29.817Z,101816.53
2022-10-19T13:15:04.865Z,101825.56
2022-10-19T13:17:34.767Z,101821.59
2022-10-19T13:20:13.513Z,101818.31
2022-10-19T13:23:09.045Z,101808.81
2022-10-19T13:25:40.470Z,101819.25
2022-10-19T13:28:07.054Z,101814.28
2022-10-19T13:30:39.296Z,101821.34
2022-10-19T13:33:33.215Z,101816.91
2022-10-19T13:35:59.848Z,101812.13
2022-10-19T13:38:33.739Z,101815.31
2022-10-19T13:41:25.241Z,101813.47
2022-10-19T13:44:02.897Z,101810.88
2022-10-19T13:46:29.576Z,101817.19
2022-10-19T13:49:04.975Z,101812.72
2022-10-19T13:52:08.460Z,101809.78
2022-10-19T13:54:53.491Z,101804.16
2022-10-19T13:57:45.577Z,101813.88
2022-10-19T14:00:20.124Z,101817.63
2022-10-19T14:03:07.936Z,101807.25
2022-10-19T14:05:57.755Z,101813.75
2022-10-19T14:08:27.382Z,101803.50
2022-10-19T14:11:04.826Z,101797.75
2022-10-19T14:13:32.383Z,101798.88
2022-10-19T14:16:03.176Z,101805.72
2022-10-19T14:18:32.851Z,101805.69
2022-10-19T14:21:04.269Z,101801.81
2022-10-19T14:23:34.257Z,101808.19
2022-10-19T14:26:03.997Z,101807.09
2022-10-19T14:28:32.014Z,101795.91
2022-10-19T14:31:05.368Z,101796.41
2022-10-19T14:33:35.291Z,101804.00
2022-10-19T14:36:02.602Z,101794.59
2022-10-19T14:38:38.513Z,101788.84
2022-10-19T14:41:06.653Z,101788.47
2022-10-19T14:43:34.919Z,101796.31
2022-10-19T14:46:11.275Z,101791.84
2022-10-19T14:48:45.600Z,101796.34
2022-10-19T14:51:43.314Z,101799.50
2022-10-19T14:54:36.115Z,101794.41
2022-10-19T14:57:12.489Z,101791.38
2022-10-19T14:59:46.461Z,101790.97
2022-10-19T15:02:22.629Z,101778.31
2022-10-19T15:04:51.438Z,101776.69
2022-10-19T15:07:25.435Z,101785.25
2022-10-19T15:09:58.254Z,101787.25
2022-10-19T15:12:40.255Z,101778.66
2022-10-19T15:15:15.427Z,101781.91
2022-10-19T15:17:54.382Z,101779.50
2022-10-19T15:20:30.341Z,101779.81
2022-10-19T15:22:58.626Z,101781.13
2022-10-19T15:25:32.848Z,101785.25
2022-10-19T15:28:20.270Z,101786.22
2022-10-19T15:30:59.094Z,101784.19
2022-10-19T15:33:26.383Z,101779.63
2022-10-19T15:35:53.072Z,101778.47
2022-10-19T15:38:25.305Z,101781.50
2022-10-19T15:41:00.855Z,101776.06
2022-10-19T15:43:30.525Z,101774.94
2022-10-19T15:46:12.406Z,101772.59
2022-10-19T15:48:41.835Z,101771.41
2022-10-19T15:51:23.508Z,101768.63
2022-10-19T15:53:58.323Z,101764.88
2022-10-19T15:56:27.909Z,101769.66
2022-10-19T15:58:56.835Z,101775.50
2022-10-19T16:01:26.519Z,101770.72
2022-10-19T16:03:54.522Z,101756.66
2022-10-19T16:06:23.551Z,101764.69
2022-10-19T16:08:51.297Z,101776.50
2022-10-19T16:11:20.037Z,101773.81
2022-10-19T16:13:46.791Z,101772.31
2022-10-19T16:16:21.123Z,101771.25
2022-10-19T16:18:47.902Z,101768.19
2022-10-19T16:21:15.533Z,101762.09
2022-10-19T16:23:42.375Z,101766.31
2022-10-19T16:26:09.118Z,101763.22
2022-10-19T16:28:36.068Z,101755.47
2022-10-19T16:31:02.892Z,101768.00
2022-10-19T16:33:29.513Z,101758.53
2022-10-19T16:35:56.067Z,101762.00
2022-10-19T16:38:23.276Z,101756.25
2022-10-19T16:40:49.894Z,101764.38
2022-10-19T16:43:16.512Z,101758.28
2022-10-19T16:45:43.742Z,101757.97
2022-10-19T16:48:13.474Z,101756.78
2022-10-19T16:50:40.146Z,101759.94
2022-10-19T16:53:10.428Z,101764.50
2022-10-19T16:55:38.214Z,101762.22
2022-10-19T16:58:04.808Z,101759.38
2022-10-19T17:00:31.722Z,101759.38
2022-10-19T17:02:58.487Z,101746.50
2022-10-19T17:05:25.107Z,101743.97
2022-10-19T17:07:51.781Z,101750.00
2022-10-19T17:10:18.492Z,101749.69
2022-10-19T17:12:45.136Z,101752.19
2022-10-19T17:17:59.834Z,101755.84
2022-10-19T17:20:26.484Z,101758.69
2022-10-19T17:22:53.114Z,101764.81
2022-10-19T17:25:19.701Z,101773.50
2022-10-19T17:27:50.534Z,101763.00
2022-10-19T17:30:17.344Z,101760.53
2022-10-19T17:32:43.973Z,101769.34
2022-10-19T17:35:10.671Z,101767.97
2022-10-19T17:37:38.055Z,101764.47
2022-10-19T17:40:04.937Z,101768.81
2022-10-19T17:42:32.267Z,101770.69
2022-10-19T17:44:58.867Z,101770.06
2022-10-19T17:47:25.442Z,101768.19
2022-10-19T17:49:52.087Z,101759.22
2022-10-19T17:52:18.684Z,101770.38
2022-10-19T17:54:54.532Z,101778.91
2022-10-19T17:57:32.449Z,101765.66
2022-10-19T17:59:59.189Z,101770.19
2022-10-19T18:02:25.896Z,101763.53
2022-10-19T18:04:52.519Z,101764.22
2022-10-19T18:07:21.961Z,101760.75
2022-10-19T18:09:48.722Z,101762.56
2022-10-19T18:12:15.343Z,101754.69
2022-10-19T18:14:42.038Z,101764.03
2022-10-19T18:17:08.594Z,101751.00
2022-10-19T18:19:35.228Z,101752.59
2022-10-19T18:22:01.811Z,101757.16
2022-10-19T18:24:28.562Z,101757.94
2022-10-19T18:26:55.315Z,101759.03
2022-10-19T18:29:24.510Z,101756.44
2022-10-19T18:31:52.515Z,101769.00
2022-10-19T18:34:25.111Z,101769.31
2022-10-19T18:36:52.395Z,101762.38
2022-10-19T18:39:19.291Z,101764.84
2022-10-19T18:41:45.964Z,101764.63
2022-10-19T18:44:13.914Z,101776.78
2022-10-19T18:46:41.010Z,101767.41
2022-10-19T18:49:08.676Z,101761.34
2022-10-19T18:51:35.600Z,101771.19
2022-10-19T18:54:02.419Z,101771.53
2022-10-19T18:56:33.493Z,101771.97
2022-10-19T18:59:00.376Z,101761.09
2022-10-19T19:01:28.305Z,101770.03
2022-10-19T19:03:58.714Z,101769.91
2022-10-19T19:06:30.082Z,101768.09
2022-10-19T19:08:59.186Z,101772.59
2022-10-19T19:11:34.297Z,101768.09
2022-10-19T19:14:06.855Z,101773.41
2022-10-19T19:16:36.193Z,101774.97
2022-10-19T19:19:03.219Z,101772.25
2022-10-19T19:21:31.415Z,101773.72
2022-10-19T19:24:00.251Z,101777.25
2022-10-19T19:26:29.623Z,101773.34
2022-10-19T19:28:57.549Z,101781.66
2022-10-19T19:31:24.605Z,101778.66
2022-10-19T19:33:51.351Z,101776.94
2022-10-19T19:36:19.499Z,101772.53
2022-10-19T19:38:46.580Z,101757.22
2022-10-19T19:41:15.069Z,101769.44
2022-10-19T19:43:42.685Z,101765.00
2022-10-19T19:46:13.675Z,101754.00
2022-10-19T19:48:42.166Z,101755.16
2022-10-19T19:51:11.557Z,101749.03
2022-10-19T19:53:38.385Z,101749.81
2022-10-19T19:56:09.029Z,101745.84
2022-10-19T19:58:36.000Z,101745.28
2022-10-19T20:01:12.289Z,101744.03
2022-10-19T20:03:40.451Z,101740.31
2022-10-19T20:06:07.631Z,101736.19
2022-10-19T20:08:36.286Z,101734.41
2022-10-19T20:11:08.599Z,101730.72
2022-10-19T20:13:35.468Z,101728.25
2022-10-19T20:16:09.179Z,101727.63
2022-10-19T20:18:36.041Z,101730.59
2022-10-19T20:21:03.578Z,101723.09
2022-10-19T20:23:30.121Z,101717.78
2022-10-19T20:25:56.993Z,101711.34
2022-10-19T20:28:25.175Z,101715.41
2022-10-19T20:31:02.592Z,101707.84
2022-10-19T20:33:31.521Z,101698.84
2022-10-19T20:36:06.862Z,101702.16
2022-10-19T20:38:34.982Z,101705.09
2022-10-19T20:41:09.788Z,101700.41
2022-10-19T20:43:37.524Z,101710.19
2022-10-19T20:46:04.959Z,101702.59
2022-10-19T20:48:31.786Z,101698.34
2022-10-19T20:51:32.604Z,101706.50
2022-10-19T20:54:01.818Z,101714.81
2022-10-19T20:56:30.800Z,101713.22
2022-10-19T20:59:00.541Z,101712.44
2022-10-19T21:01:29.246Z,101709.94
2022-10-19T21:03:58.244Z,101701.34
2022-10-19T21:06:26.699Z,101706.06
2022-10-19T21:08:53.601Z,101708.22
2022-10-19T21:11:23.359Z,101702.06
2022-10-19T21:13:54.020Z,101709.03
2022-10-19T21:16:22.137Z,101696.72
2022-10-19T21:18:49.684Z,101696.09
2022-10-19T21:21:22.535Z,101691.81
2022-10-19T21:23:53.207Z,101683.34
2022-10-19T21:26:20.099Z,101682.25
2022-10-19T21:28:48.412Z,101682.38
2022-10-19T21:31:16.788Z,101676.97
2022-10-19T21:33:44.551Z,101683.38
2022-10-19T21:36:12.611Z,101682.38
2022-10-19T21:38:39.392Z,101678.38
2022-10-19T21:41:08.691Z,101681.84
2022-10-19T21:43:35.589Z,101677.47
2022-10-19T21:46:06.881Z,101688.53
2022-10-19T21:48:34.382Z,101680.41
2022-10-19T21:51:12.708Z,101684.72
2022-10-19T21:53:39.332Z,101690.19
2022-10-19T21:56:06.185Z,101682.56
2022-10-19T21:58:32.843Z,101682.66
2022-10-19T22:01:06.526Z,101683.16
2022-10-19T22:03:33.814Z,101681.66
2022-10-19T22:06:00.772Z,101689.56
2022-10-19T22:08:27.637Z,101678.16
2022-10-19T22:10:54.317Z,101675.41
2022-10-19T22:13:20.970Z,101681.53
2022-10-19T22:15:47.523Z,101677.28
2022-10-19T22:18:14.212Z,101662.16
2022-10-19T22:20:41.036Z,101673.69
2022-10-19T22:23:08.328Z,101666.59
2022-10-19T22:25:35.765Z,101662.75
2022-10-19T22:28:02.692Z,101671.06
2022-10-19T22:30:29.403Z,101669.47
2022-10-19T22:32:56.076Z,101670.13
2022-10-19T22:35:22.677Z,101659.34
2022-10-19T22:37:49.350Z,101657.66
2022-10-19T22:40:15.958Z,101649.00
2022-10-19T22:42:42.579Z,101651.31
2022-10-19T22:45:09.323Z,101650.03
2022-10-19T22:47:36.038Z,101652.50
2022-10-19T22:50:02.696Z,101654.28
2022-10-19T22:52:29.321Z,101641.13
2022-10-19T22:54:55.983Z,101641.75
2022-10-19T22:57:22.591Z,101631.56
2022-10-19T22:59:49.134Z,101628.41
2022-10-19T23:02:15.944Z,101623.16
2022-10-19T23:04:42.502Z,101620.00
2022-10-19T23:07:09.118Z,101615.63
2022-10-19T23:09:35.722Z,101613.63
2022-10-19T23:12:02.359Z,101618.75
2022-10-19T23:14:28.991Z,101611.69
2022-10-19T23:16:55.694Z,101605.50
2022-10-19T23:19:22.258Z,101611.63
2022-10-19T23:21:48.863Z,101607.19
2022-10-19T23:24:15.461Z,101609.84
2022-10-19T23:26:42.039Z,101617.84
2022-10-19T23:29:08.655Z,101605.91
2022-10-19T23:31:35.299Z,101604.78
2022-10-19T23:34:01.860Z,101598.50
2022-10-19T23:36:28.961Z,101601.31
2022-10-19T23:38:56.729Z,101591.47
2022-10-19T23:41:24.126Z,101587.09
2022-10-19T23:43:50.729Z,101591.97
2022-10-19T23:46:17.568Z,101596.47
2022-10-19T23:48:44.292Z,101594.94
2022-10-19T23:51:12.211Z,101601.28
2022-10-19T23:53:41.464Z,101587.22
2022-10-19T23:56:14.824Z,101595.00
2022-10-19T23:58:41.845Z,101589.94
